Portada
METAR-TAF:

METAR-TAF

Aeroports :

Zaqatala, Azerbaidjan

latitud: 41-33-44N, longitud: 46-40-02E, altitud: 330 m

Observació

L'informe es va fer fa 53 minuts, a les 12:00 UTC
Vent 12 kt del Est
Temperatura 21°C
Humitat 69%
Pressió 1019 hPa
Visibilitat 10 km o més
Escasses núvols a una alçada de 5000 ft
Cel ennuvolat a una alçada de 8000 ft

METAR: UBBY 291200Z 08012KT 9999 FEW050 BKN080 21/15 Q1019 R33/////// NOSIG RMK MT OP

Hora: 16:53 (12:53 UTC)

Pronòstic

L'informe es va fer fa 1 hora i 53 minuts, a les 11:00 UTC
Pronòstic vàlid del 29 a les 12 UTC al 29 a les 21 UTC
Vent 4 kt amb direcció variable
Visibilitat 10 km o més
Escasses núvols a una alçada de 4000 ft
Cel ennuvolat a una alçada de 8000 ft

TAF: UBBY 291100Z 2912/2921 VRB04KT 9999 FEW040 BKN080

Observacions i pronòstics meteorològics de més de 4000 aeroports (METAR i TAF).

Les estacions disponibles són els punts grocs i vermells al mapa.

Posi el ratolí al punt desitjat per veure el nom de l'estació.

Feu clic per veure les observacions i els pronòstics meteorològics.

Per canviar el mapa: feu clic els botons verds amb una creu de color negre per apropar; al botó verd amb un guió per allunyar la imatge; o en les fletxes verdes per a mapes adjacents.


METAR-TAF: